Reiles Acres, North Dakota
Current Conditions -  °F | °C
As of 12:53 PM on Thursday 27 Nov 2014 (Local Time) from KFAR Reporting Station
Clear Clear  
Wind Chill: -23°   Ceiling: Unl
Heat Index: -16°   Visibility: 10mi
Dew Point: -21°   Wind: 8mph
Humidity: 66%   Direction: 170°S
Pressure: 30.42"   Gusts: NA
Location:  46.9259°N, 96.8507°W
Report Text: KFAR 271853Z 17007KT 10SM CLR M16/M21 A3042 RMK AO2 SLP329 T11561206
Loading
Personal Weather Stations






























Interactive Weather Map New forecast layout! Learn more

10-Day Weather Forecast

Advertisements
Track Severe Weather on mobile